sensor_id;sensor_type;location;lat;lon;timestamp;pressure;altitude;pressure_sealevel;temperature;humidity
44453;BME280;30155;52.164;21.236;2023-12-22T00:01:43;96823.88;;;4.23;93.51
44453;BME280;30155;52.164;21.236;2023-12-22T00:06:51;96835.05;;;4.12;93.73
44453;BME280;30155;52.164;21.236;2023-12-22T00:12:12;96832.77;;;4.06;93.86
44453;BME280;30155;52.164;21.236;2023-12-22T00:17:18;96826.88;;;4.01;93.63
44453;BME280;30155;52.164;21.236;2023-12-22T00:22:31;96841.44;;;4.01;93.71
44453;BME280;30155;52.164;21.236;2023-12-22T00:27:23;96851.92;;;3.99;93.62
44453;BME280;30155;52.164;21.236;2023-12-22T00:32:18;96859.72;;;3.94;93.30
44453;BME280;30155;52.164;21.236;2023-12-22T00:37:21;96870.27;;;3.89;92.98
44453;BME280;30155;52.164;21.236;2023-12-22T00:42:17;96884.89;;;3.86;93.16
44453;BME280;30155;52.164;21.236;2023-12-22T00:47:23;96892.83;;;3.83;92.83
44453;BME280;30155;52.164;21.236;2023-12-22T00:52:47;96887.34;;;3.83;92.84
44453;BME280;30155;52.164;21.236;2023-12-22T00:58:08;96897.89;;;3.87;92.59
44453;BME280;30155;52.164;21.236;2023-12-22T01:03:22;96905.09;;;3.87;92.09
44453;BME280;30155;52.164;21.236;2023-12-22T01:08:14;96900.77;;;3.89;91.89
44453;BME280;30155;52.164;21.236;2023-12-22T01:13:11;96897.59;;;3.85;91.74
44453;BME280;30155;52.164;21.236;2023-12-22T01:18:05;96896.63;;;3.80;91.49
44453;BME280;30155;52.164;21.236;2023-12-22T01:23:08;96896.38;;;3.75;91.20
44453;BME280;30155;52.164;21.236;2023-12-22T01:28:04;96899.05;;;3.69;90.92
44453;BME280;30155;52.164;21.236;2023-12-22T01:32:59;96897.59;;;3.64;90.91
44453;BME280;30155;52.164;21.236;2023-12-22T01:37:51;96890.31;;;3.59;90.54
44453;BME280;30155;52.164;21.236;2023-12-22T01:42:43;96886.27;;;3.54;90.01
44453;BME280;30155;52.164;21.236;2023-12-22T01:47:35;96890.12;;;3.50;89.89
44453;BME280;30155;52.164;21.236;2023-12-22T01:52:27;96885.15;;;3.49;89.88
44453;BME280;30155;52.164;21.236;2023-12-22T01:57:19;96883.08;;;3.52;89.36
44453;BME280;30155;52.164;21.236;2023-12-22T02:02:10;96881.17;;;3.52;89.09
44453;BME280;30155;52.164;21.236;2023-12-22T02:07:03;96878.52;;;3.58;88.84
44453;BME280;30155;52.164;21.236;2023-12-22T02:11:54;96884.07;;;3.63;88.25
44453;BME280;30155;52.164;21.236;2023-12-22T02:16:52;96881.16;;;3.64;87.69
44453;BME280;30155;52.164;21.236;2023-12-22T02:22:06;96881.39;;;3.60;87.65
44453;BME280;30155;52.164;21.236;2023-12-22T02:27:21;96882.10;;;3.58;87.30
44453;BME280;30155;52.164;21.236;2023-12-22T02:32:21;96872.27;;;3.62;87.41
44453;BME280;30155;52.164;21.236;2023-12-22T02:37:14;96863.77;;;3.68;86.63
44453;BME280;30155;52.164;21.236;2023-12-22T02:42:06;96868.83;;;3.73;86.17
44453;BME280;30155;52.164;21.236;2023-12-22T02:46:58;96863.29;;;3.77;86.34
44453;BME280;30155;52.164;21.236;2023-12-22T02:51:49;96864.74;;;3.81;85.95
44453;BME280;30155;52.164;21.236;2023-12-22T02:56:40;96868.27;;;3.87;85.59
44453;BME280;30155;52.164;21.236;2023-12-22T03:01:33;96865.29;;;3.89;85.39
44453;BME280;30155;52.164;21.236;2023-12-22T03:06:25;96865.24;;;3.92;85.16
44453;BME280;30155;52.164;21.236;2023-12-22T03:11:16;96855.10;;;3.94;84.52
44453;BME280;30155;52.164;21.236;2023-12-22T03:16:08;96852.29;;;3.98;84.78
44453;BME280;30155;52.164;21.236;2023-12-22T03:21:00;96849.29;;;4.02;84.54
44453;BME280;30155;52.164;21.236;2023-12-22T03:25:51;96856.09;;;4.06;83.68
44453;BME280;30155;52.164;21.236;2023-12-22T03:30:43;96853.45;;;4.09;83.24
44453;BME280;30155;52.164;21.236;2023-12-22T03:35:34;96854.80;;;4.09;83.29
44453;BME280;30155;52.164;21.236;2023-12-22T03:40:26;96864.14;;;4.06;83.54
44453;BME280;30155;52.164;21.236;2023-12-22T03:45:17;96868.33;;;4.02;83.26
44453;BME280;30155;52.164;21.236;2023-12-22T03:50:09;96870.80;;;3.98;83.56
44453;BME280;30155;52.164;21.236;2023-12-22T03:55:00;96866.06;;;3.94;83.93
44453;BME280;30155;52.164;21.236;2023-12-22T03:59:52;96863.06;;;3.90;83.43
44453;BME280;30155;52.164;21.236;2023-12-22T04:04:43;96872.02;;;3.87;83.72
44453;BME280;30155;52.164;21.236;2023-12-22T04:09:36;96873.59;;;3.85;83.46
44453;BME280;30155;52.164;21.236;2023-12-22T04:14:28;96872.59;;;3.84;83.58
44453;BME280;30155;52.164;21.236;2023-12-22T04:19:20;96871.95;;;3.81;83.52
44453;BME280;30155;52.164;21.236;2023-12-22T04:24:11;96874.06;;;3.78;83.67
44453;BME280;30155;52.164;21.236;2023-12-22T04:29:03;96881.41;;;3.78;83.89
44453;BME280;30155;52.164;21.236;2023-12-22T04:33:54;96882.28;;;3.78;83.46
44453;BME280;30155;52.164;21.236;2023-12-22T04:38:46;96880.61;;;3.76;83.57
44453;BME280;30155;52.164;21.236;2023-12-22T04:43:38;96884.21;;;3.76;83.56
44453;BME280;30155;52.164;21.236;2023-12-22T04:48:29;96888.67;;;3.75;82.78
44453;BME280;30155;52.164;21.236;2023-12-22T04:53:21;96889.34;;;3.75;82.46
44453;BME280;30155;52.164;21.236;2023-12-22T04:58:12;96898.23;;;3.76;82.82
44453;BME280;30155;52.164;21.236;2023-12-22T05:03:04;96917.64;;;3.73;82.93
44453;BME280;30155;52.164;21.236;2023-12-22T05:07:55;96920.00;;;3.66;82.89
44453;BME280;30155;52.164;21.236;2023-12-22T05:12:46;96917.93;;;3.56;83.48
44453;BME280;30155;52.164;21.236;2023-12-22T05:17:38;96930.55;;;3.48;83.54
44453;BME280;30155;52.164;21.236;2023-12-22T05:22:31;96931.05;;;3.38;84.07
44453;BME280;30155;52.164;21.236;2023-12-22T05:27:27;96934.66;;;3.26;84.52
44453;BME280;30155;52.164;21.236;2023-12-22T05:32:18;96938.39;;;3.15;84.26
44453;BME280;30155;52.164;21.236;2023-12-22T05:37:10;96941.09;;;3.06;84.30
44453;BME280;30155;52.164;21.236;2023-12-22T05:42:02;96939.91;;;3.03;84.77
44453;BME280;30155;52.164;21.236;2023-12-22T05:46:53;96944.52;;;3.05;84.80
44453;BME280;30155;52.164;21.236;2023-12-22T05:51:45;96943.61;;;3.10;84.73
44453;BME280;30155;52.164;21.236;2023-12-22T05:56:36;96952.30;;;3.12;84.50
44453;BME280;30155;52.164;21.236;2023-12-22T06:01:31;96953.45;;;3.15;84.64
44453;BME280;30155;52.164;21.236;2023-12-22T06:06:28;96958.23;;;3.15;84.47
44453;BME280;30155;52.164;21.236;2023-12-22T06:11:31;96965.45;;;3.13;84.08
44453;BME280;30155;52.164;21.236;2023-12-22T06:16:39;96964.30;;;3.10;84.14
44453;BME280;30155;52.164;21.236;2023-12-22T06:27:38;96955.83;;;3.04;84.22
44453;BME280;30155;52.164;21.236;2023-12-22T06:33:50;96965.13;;;2.99;84.08
44453;BME280;30155;52.164;21.236;2023-12-22T06:39:49;96969.23;;;3.00;83.31
44453;BME280;30155;52.164;21.236;2023-12-22T06:45:07;96980.48;;;3.03;83.22
44453;BME280;30155;52.164;21.236;2023-12-22T06:50:00;96985.05;;;3.07;82.33
44453;BME280;30155;52.164;21.236;2023-12-22T06:54:59;96991.63;;;3.13;81.86
44453;BME280;30155;52.164;21.236;2023-12-22T06:59:51;96995.34;;;3.18;80.86
44453;BME280;30155;52.164;21.236;2023-12-22T07:09:54;97000.50;;;3.29;78.23
44453;BME280;30155;52.164;21.236;2023-12-22T07:14:55;97008.34;;;3.32;77.44
44453;BME280;30155;52.164;21.236;2023-12-22T07:19:53;97007.80;;;3.33;77.05
44453;BME280;30155;52.164;21.236;2023-12-22T07:24:48;97017.40;;;3.33;77.01
44453;BME280;30155;52.164;21.236;2023-12-22T07:29:46;97027.67;;;3.32;76.86
44453;BME280;30155;52.164;21.236;2023-12-22T07:34:38;97031.27;;;3.32;76.31
44453;BME280;30155;52.164;21.236;2023-12-22T07:39:31;97034.84;;;3.33;75.93
44453;BME280;30155;52.164;21.236;2023-12-22T07:44:25;97042.88;;;3.35;75.91
44453;BME280;30155;52.164;21.236;2023-12-22T07:49:26;97045.88;;;3.41;75.70
44453;BME280;30155;52.164;21.236;2023-12-22T07:54:22;97061.05;;;3.45;74.92
44453;BME280;30155;52.164;21.236;2023-12-22T07:59:15;97060.80;;;3.52;74.57
44453;BME280;30155;52.164;21.236;2023-12-22T08:04:20;97065.60;;;3.51;74.09
44453;BME280;30155;52.164;21.236;2023-12-22T08:09:22;97080.67;;;3.50;73.66
44453;BME280;30155;52.164;21.236;2023-12-22T08:14:20;97087.80;;;3.42;73.47
44453;BME280;30155;52.164;21.236;2023-12-22T08:19:23;97080.30;;;3.39;73.27
44453;BME280;30155;52.164;21.236;2023-12-22T08:24:18;97087.15;;;3.40;73.36
44453;BME280;30155;52.164;21.236;2023-12-22T08:29:16;97094.27;;;3.59;72.67
44453;BME280;30155;52.164;21.236;2023-12-22T08:34:22;97097.06;;;3.68;71.96
44453;BME280;30155;52.164;21.236;2023-12-22T08:39:31;97097.44;;;3.65;72.03
44453;BME280;30155;52.164;21.236;2023-12-22T08:44:45;97102.49;;;3.58;72.40
44453;BME280;30155;52.164;21.236;2023-12-22T08:50:15;97103.51;;;3.60;72.00
44453;BME280;30155;52.164;21.236;2023-12-22T08:55:44;97110.13;;;3.65;71.96
44453;BME280;30155;52.164;21.236;2023-12-22T09:01:18;97103.64;;;3.62;72.65
44453;BME280;30155;52.164;21.236;2023-12-22T09:13:31;97094.26;;;3.60;72.96
44453;BME280;30155;52.164;21.236;2023-12-22T09:18:53;97090.15;;;3.59;73.10
44453;BME280;30155;52.164;21.236;2023-12-22T09:24:28;97091.27;;;3.65;73.09
44453;BME280;30155;52.164;21.236;2023-12-22T09:30:46;97091.35;;;3.97;72.89
44453;BME280;30155;52.164;21.236;2023-12-22T09:36:16;97080.83;;;4.11;72.69
44453;BME280;30155;52.164;21.236;2023-12-22T09:47:31;97057.45;;;4.16;72.55
44453;BME280;30155;52.164;21.236;2023-12-22T09:53:14;97052.47;;;4.28;71.56
44453;BME280;30155;52.164;21.236;2023-12-22T09:58:53;97043.16;;;4.40;69.63
44453;BME280;30155;52.164;21.236;2023-12-22T10:04:30;97031.70;;;4.59;70.11
44453;BME280;30155;52.164;21.236;2023-12-22T10:10:18;97023.09;;;4.69;70.40
44453;BME280;30155;52.164;21.236;2023-12-22T10:16:17;97014.23;;;4.66;70.92
44453;BME280;30155;52.164;21.236;2023-12-22T10:21:17;97002.91;;;4.56;70.20
44453;BME280;30155;52.164;21.236;2023-12-22T10:26:33;96978.57;;;4.47;70.32
44453;BME280;30155;52.164;21.236;2023-12-22T10:32:13;97035.36;;;4.25;71.63
44453;BME280;30155;52.164;21.236;2023-12-22T10:37:07;97069.19;;;3.63;73.02
44453;BME280;30155;52.164;21.236;2023-12-22T10:42:09;97107.85;;;2.94;74.58
44453;BME280;30155;52.164;21.236;2023-12-22T10:47:38;97136.51;;;2.26;76.44
44453;BME280;30155;52.164;21.236;2023-12-22T10:52:30;97139.38;;;1.76;77.75
44453;BME280;30155;52.164;21.236;2023-12-22T10:57:21;97140.22;;;1.42;78.83
44453;BME280;30155;52.164;21.236;2023-12-22T11:02:17;97141.33;;;1.18;79.37
44453;BME280;30155;52.164;21.236;2023-12-22T11:07:09;97134.52;;;1.10;79.94
44453;BME280;30155;52.164;21.236;2023-12-22T11:12:02;97114.05;;;1.17;80.36
44453;BME280;30155;52.164;21.236;2023-12-22T11:16:55;97083.05;;;1.42;80.35
44453;BME280;30155;52.164;21.236;2023-12-22T11:21:49;97051.95;;;1.76;79.59
44453;BME280;30155;52.164;21.236;2023-12-22T11:26:42;97036.35;;;1.87;79.37
44453;BME280;30155;52.164;21.236;2023-12-22T11:31:38;97025.86;;;1.96;79.48
44453;BME280;30155;52.164;21.236;2023-12-22T11:36:38;97022.20;;;2.24;78.56
44453;BME280;30155;52.164;21.236;2023-12-22T11:41:34;97023.22;;;2.42;78.81
44453;BME280;30155;52.164;21.236;2023-12-22T11:46:30;97025.09;;;3.06;78.25
44453;BME280;30155;52.164;21.236;2023-12-22T11:58:32;97022.65;;;3.50;76.87
44453;BME280;30155;52.164;21.236;2023-12-22T12:03:56;97028.42;;;3.41;77.44
44453;BME280;30155;52.164;21.236;2023-12-22T12:08:53;97020.11;;;3.35;77.28
44453;BME280;30155;52.164;21.236;2023-12-22T12:13:46;97017.95;;;3.16;77.71
44453;BME280;30155;52.164;21.236;2023-12-22T12:18:38;97020.21;;;3.00;77.95
44453;BME280;30155;52.164;21.236;2023-12-22T12:23:30;97017.00;;;2.96;78.23
44453;BME280;30155;52.164;21.236;2023-12-22T12:28:26;97017.13;;;2.85;78.15
44453;BME280;30155;52.164;21.236;2023-12-22T12:33:20;97008.21;;;2.72;78.76
44453;BME280;30155;52.164;21.236;2023-12-22T12:38:13;97000.94;;;2.64;79.07
44453;BME280;30155;52.164;21.236;2023-12-22T12:43:06;96994.17;;;2.74;79.18
44453;BME280;30155;52.164;21.236;2023-12-22T12:48:07;96980.83;;;2.58;79.07
44453;BME280;30155;52.164;21.236;2023-12-22T12:52:59;96972.17;;;2.38;79.59
44453;BME280;30155;52.164;21.236;2023-12-22T12:57:52;96970.60;;;2.24;79.73
44453;BME280;30155;52.164;21.236;2023-12-22T13:02:47;96966.24;;;2.15;80.37
44453;BME280;30155;52.164;21.236;2023-12-22T13:07:39;96969.61;;;2.02;80.74
44453;BME280;30155;52.164;21.236;2023-12-22T13:12:32;96967.50;;;1.89;81.08
44453;BME280;30155;52.164;21.236;2023-12-22T13:17:24;96964.37;;;1.76;81.54
44453;BME280;30155;52.164;21.236;2023-12-22T13:22:15;96964.28;;;1.64;82.01
44453;BME280;30155;52.164;21.236;2023-12-22T13:27:07;96965.88;;;1.57;82.51
44453;BME280;30155;52.164;21.236;2023-12-22T13:31:59;96955.15;;;1.52;82.92
44453;BME280;30155;52.164;21.236;2023-12-22T13:36:50;96956.55;;;1.49;82.96
44453;BME280;30155;52.164;21.236;2023-12-22T13:41:42;96956.75;;;1.46;83.35
44453;BME280;30155;52.164;21.236;2023-12-22T13:46:37;96955.56;;;1.43;83.69
44453;BME280;30155;52.164;21.236;2023-12-22T13:51:44;96949.27;;;1.39;83.56
44453;BME280;30155;52.164;21.236;2023-12-22T13:56:39;96938.39;;;1.35;84.30
44453;BME280;30155;52.164;21.236;2023-12-22T14:01:32;96936.69;;;1.33;84.49
44453;BME280;30155;52.164;21.236;2023-12-22T14:06:25;96933.98;;;1.30;84.53
44453;BME280;30155;52.164;21.236;2023-12-22T14:11:19;96925.13;;;1.28;85.07
44453;BME280;30155;52.164;21.236;2023-12-22T14:17:20;96921.05;;;1.26;84.98
44453;BME280;30155;52.164;21.236;2023-12-22T14:29:12;96906.43;;;1.19;85.67
44453;BME280;30155;52.164;21.236;2023-12-22T14:35:11;96910.55;;;1.16;85.99
44453;BME280;30155;52.164;21.236;2023-12-22T14:40:48;96910.55;;;1.15;85.89
44453;BME280;30155;52.164;21.236;2023-12-22T14:46:04;96925.71;;;1.16;86.00
44453;BME280;30155;52.164;21.236;2023-12-22T14:51:45;96925.23;;;1.11;85.94
44453;BME280;30155;52.164;21.236;2023-12-22T15:03:27;96919.16;;;1.03;86.37
44453;BME280;30155;52.164;21.236;2023-12-22T15:08:44;96920.52;;;1.02;86.61
44453;BME280;30155;52.164;21.236;2023-12-22T15:40:21;96939.27;;;1.02;87.28
44453;BME280;30155;52.164;21.236;2023-12-22T15:46:14;96933.14;;;1.02;87.95
44453;BME280;30155;52.164;21.236;2023-12-22T15:51:39;96943.73;;;1.01;87.91
44453;BME280;30155;52.164;21.236;2023-12-22T15:57:25;96950.89;;;1.01;88.01
44453;BME280;30155;52.164;21.236;2023-12-22T16:09:40;96961.45;;;1.01;88.17
44453;BME280;30155;52.164;21.236;2023-12-22T16:35:43;96980.58;;;0.94;88.64
44453;BME280;30155;52.164;21.236;2023-12-22T16:40:36;96994.23;;;0.93;88.80
44453;BME280;30155;52.164;21.236;2023-12-22T16:45:37;96995.25;;;0.93;88.82
44453;BME280;30155;52.164;21.236;2023-12-22T16:50:48;97010.60;;;0.93;88.71
44453;BME280;30155;52.164;21.236;2023-12-22T16:56:16;97016.05;;;0.94;88.83
44453;BME280;30155;52.164;21.236;2023-12-22T17:01:34;97022.88;;;0.94;88.91
44453;BME280;30155;52.164;21.236;2023-12-22T17:07:29;97018.44;;;0.94;88.70
44453;BME280;30155;52.164;21.236;2023-12-22T17:25:39;97033.75;;;1.04;88.02
44453;BME280;30155;52.164;21.236;2023-12-22T17:37:33;97048.55;;;1.13;87.26
44453;BME280;30155;52.164;21.236;2023-12-22T17:43:28;97054.85;;;1.16;86.93
44453;BME280;30155;52.164;21.236;2023-12-22T17:50:06;97053.30;;;1.19;86.72
44453;BME280;30155;52.164;21.236;2023-12-22T17:55:49;97056.38;;;1.19;86.55
44453;BME280;30155;52.164;21.236;2023-12-22T18:00:53;97064.22;;;1.21;86.33
44453;BME280;30155;52.164;21.236;2023-12-22T18:05:45;97062.33;;;1.23;85.60
44453;BME280;30155;52.164;21.236;2023-12-22T18:10:37;97057.69;;;1.27;85.34
44453;BME280;30155;52.164;21.236;2023-12-22T18:15:30;97065.02;;;1.31;84.90
44453;BME280;30155;52.164;21.236;2023-12-22T18:20:22;97066.70;;;1.35;84.74
44453;BME280;30155;52.164;21.236;2023-12-22T18:25:19;97059.01;;;1.39;84.07
44453;BME280;30155;52.164;21.236;2023-12-22T18:30:11;97061.20;;;1.44;83.28
44453;BME280;30155;52.164;21.236;2023-12-22T18:35:04;97061.52;;;1.48;82.87
44453;BME280;30155;52.164;21.236;2023-12-22T18:39:56;97067.82;;;1.50;82.33
44453;BME280;30155;52.164;21.236;2023-12-22T18:44:47;97078.89;;;1.53;81.56
44453;BME280;30155;52.164;21.236;2023-12-22T18:49:39;97084.86;;;1.56;81.03
44453;BME280;30155;52.164;21.236;2023-12-22T18:54:31;97085.52;;;1.60;80.69
44453;BME280;30155;52.164;21.236;2023-12-22T18:59:41;97088.06;;;1.62;80.25
44453;BME280;30155;52.164;21.236;2023-12-22T19:10:32;97093.52;;;1.67;79.82
44453;BME280;30155;52.164;21.236;2023-12-22T19:16:05;97099.81;;;1.69;78.74
44453;BME280;30155;52.164;21.236;2023-12-22T19:21:12;97095.17;;;1.73;78.56
44453;BME280;30155;52.164;21.236;2023-12-22T19:33:10;97105.41;;;1.74;77.45
44453;BME280;30155;52.164;21.236;2023-12-22T19:46:07;97108.30;;;1.78;77.28
44453;BME280;30155;52.164;21.236;2023-12-22T19:52:18;97107.96;;;1.78;76.84
44453;BME280;30155;52.164;21.236;2023-12-22T20:03:33;97124.52;;;1.78;76.72
44453;BME280;30155;52.164;21.236;2023-12-22T20:08:53;97132.02;;;1.78;76.32
44453;BME280;30155;52.164;21.236;2023-12-22T20:13:50;97146.70;;;1.79;75.80
44453;BME280;30155;52.164;21.236;2023-12-22T20:19:22;97155.77;;;1.80;76.30
44453;BME280;30155;52.164;21.236;2023-12-22T20:25:26;97163.09;;;1.80;75.77
44453;BME280;30155;52.164;21.236;2023-12-22T20:31:20;97169.77;;;1.79;75.29
44453;BME280;30155;52.164;21.236;2023-12-22T20:37:25;97164.29;;;1.81;74.67
44453;BME280;30155;52.164;21.236;2023-12-22T20:43:10;97173.66;;;1.83;75.09
44453;BME280;30155;52.164;21.236;2023-12-22T20:48:05;97173.52;;;1.83;74.92
44453;BME280;30155;52.164;21.236;2023-12-22T20:53:05;97173.50;;;1.83;74.17
44453;BME280;30155;52.164;21.236;2023-12-22T20:58:05;97171.45;;;1.83;74.16
44453;BME280;30155;52.164;21.236;2023-12-22T21:02:57;97165.98;;;1.83;74.07
44453;BME280;30155;52.164;21.236;2023-12-22T21:07:49;97174.19;;;1.82;74.18
44453;BME280;30155;52.164;21.236;2023-12-22T21:12:41;97175.04;;;1.82;73.54
44453;BME280;30155;52.164;21.236;2023-12-22T21:17:33;97184.09;;;1.82;73.04
44453;BME280;30155;52.164;21.236;2023-12-22T21:22:24;97184.10;;;1.81;73.07
44453;BME280;30155;52.164;21.236;2023-12-22T21:27:16;97181.38;;;1.78;73.71
44453;BME280;30155;52.164;21.236;2023-12-22T21:32:08;97183.44;;;1.76;72.98
44453;BME280;30155;52.164;21.236;2023-12-22T21:37:00;97183.29;;;1.73;72.86
44453;BME280;30155;52.164;21.236;2023-12-22T21:41:51;97190.81;;;1.72;73.03
44453;BME280;30155;52.164;21.236;2023-12-22T21:46:44;97197.81;;;1.71;72.67
44453;BME280;30155;52.164;21.236;2023-12-22T21:51:36;97220.35;;;1.70;73.10
44453;BME280;30155;52.164;21.236;2023-12-22T21:56:27;97226.67;;;1.66;73.21
44453;BME280;30155;52.164;21.236;2023-12-22T22:01:19;97227.55;;;1.63;73.57
44453;BME280;30155;52.164;21.236;2023-12-22T22:06:10;97233.70;;;1.62;73.43
44453;BME280;30155;52.164;21.236;2023-12-22T22:11:02;97229.60;;;1.61;73.69
44453;BME280;30155;52.164;21.236;2023-12-22T22:15:54;97234.89;;;1.60;73.70
44453;BME280;30155;52.164;21.236;2023-12-22T22:20:45;97240.70;;;1.60;74.10
44453;BME280;30155;52.164;21.236;2023-12-22T22:25:36;97246.33;;;1.59;74.21
44453;BME280;30155;52.164;21.236;2023-12-22T22:30:29;97247.87;;;1.55;74.64
44453;BME280;30155;52.164;21.236;2023-12-22T22:35:21;97248.23;;;1.52;74.79
44453;BME280;30155;52.164;21.236;2023-12-22T22:40:12;97249.61;;;1.47;75.42
44453;BME280;30155;52.164;21.236;2023-12-22T22:45:04;97252.52;;;1.39;75.67
44453;BME280;30155;52.164;21.236;2023-12-22T22:49:56;97252.88;;;1.35;75.63
44453;BME280;30155;52.164;21.236;2023-12-22T22:54:47;97251.33;;;1.34;75.26
44453;BME280;30155;52.164;21.236;2023-12-22T22:59:39;97255.27;;;1.35;75.22
44453;BME280;30155;52.164;21.236;2023-12-22T23:04:30;97264.30;;;1.36;75.08
44453;BME280;30155;52.164;21.236;2023-12-22T23:09:21;97259.36;;;1.36;75.56
44453;BME280;30155;52.164;21.236;2023-12-22T23:14:13;97264.82;;;1.35;75.34
44453;BME280;30155;52.164;21.236;2023-12-22T23:19:05;97272.34;;;1.35;75.43
44453;BME280;30155;52.164;21.236;2023-12-22T23:23:57;97269.42;;;1.35;74.74
44453;BME280;30155;52.164;21.236;2023-12-22T23:28:48;97266.52;;;1.35;75.08
44453;BME280;30155;52.164;21.236;2023-12-22T23:33:40;97266.36;;;1.33;74.87
44453;BME280;30155;52.164;21.236;2023-12-22T23:38:31;97270.46;;;1.31;74.91
44453;BME280;30155;52.164;21.236;2023-12-22T23:43:25;97274.05;;;1.29;74.93
44453;BME280;30155;52.164;21.236;2023-12-22T23:48:16;97293.15;;;1.28;75.04
44453;BME280;30155;52.164;21.236;2023-12-22T23:53:08;97297.77;;;1.22;75.70
44453;BME280;30155;52.164;21.236;2023-12-22T23:58:00;97300.66;;;1.16;75.55
